createdAt,value
2018-12-03T00:01:26.118Z,4.17
2018-12-03T00:03:58.761Z,3.60
2018-12-03T00:06:27.426Z,3.93
2018-12-03T00:08:56.178Z,3.20
2018-12-03T00:11:24.910Z,2.87
2018-12-03T00:13:53.405Z,1.90
2018-12-03T00:16:23.646Z,1.80
2018-12-03T00:18:54.536Z,1.80
2018-12-03T00:21:27.536Z,1.50
2018-12-03T00:23:57.615Z,1.30
2018-12-03T00:26:27.621Z,1.57
2018-12-03T00:28:57.218Z,1.00
2018-12-03T00:31:27.436Z,1.27
2018-12-03T00:33:57.591Z,1.10
2018-12-03T00:36:26.552Z,1.30
2018-12-03T00:38:55.204Z,1.30
2018-12-03T00:41:24.015Z,1.33
2018-12-03T00:43:53.451Z,1.30
2018-12-03T00:46:21.939Z,1.20
2018-12-03T00:48:50.434Z,1.20
2018-12-03T00:51:19.273Z,1.80
2018-12-03T00:53:48.050Z,1.50
2018-12-03T00:56:17.128Z,1.70
2018-12-03T00:58:46.381Z,1.90
2018-12-03T01:01:15.170Z,1.53
2018-12-03T01:03:43.957Z,1.70
2018-12-03T01:06:13.323Z,1.80
2018-12-03T01:08:41.861Z,2.27
2018-12-03T01:11:10.795Z,1.90
2018-12-03T01:13:39.720Z,1.90
2018-12-03T01:16:08.973Z,2.70
2018-12-03T01:18:38.493Z,1.97
2018-12-03T01:21:08.507Z,2.23
2018-12-03T01:23:38.206Z,1.97
2018-12-03T01:26:07.423Z,2.30
2018-12-03T01:28:36.015Z,2.50
2018-12-03T01:31:04.603Z,2.60
2018-12-03T01:33:33.085Z,2.07
2018-12-03T01:36:01.995Z,2.80
2018-12-03T01:38:30.436Z,2.40
2018-12-03T01:40:58.901Z,2.33
2018-12-03T01:43:27.868Z,2.70
2018-12-03T01:45:56.299Z,2.40
2018-12-03T01:48:24.811Z,2.27
2018-12-03T01:50:53.224Z,2.60
2018-12-03T01:53:21.685Z,3.10
2018-12-03T01:55:50.125Z,2.63
2018-12-03T01:58:18.598Z,3.13
2018-12-03T02:00:47.539Z,2.90
2018-12-03T02:03:16.656Z,3.10
2018-12-03T02:05:45.105Z,2.87
2018-12-03T02:08:13.641Z,2.53
2018-12-03T02:10:42.772Z,3.10
2018-12-03T02:13:11.596Z,2.57
2018-12-03T02:15:40.223Z,2.20
2018-12-03T02:18:08.678Z,2.40
2018-12-03T02:20:37.263Z,2.63
2018-12-03T02:23:06.395Z,2.40
2018-12-03T02:25:34.812Z,2.73
2018-12-03T02:28:03.284Z,2.67
2018-12-03T02:30:31.836Z,2.53
2018-12-03T02:33:00.959Z,2.73
2018-12-03T02:35:29.407Z,2.97
2018-12-03T02:37:57.995Z,2.93
2018-12-03T02:40:26.444Z,2.50
2018-12-03T02:42:55.611Z,2.63
2018-12-03T02:45:24.026Z,2.80
2018-12-03T02:47:52.494Z,2.73
2018-12-03T02:50:20.995Z,3.23
2018-12-03T02:52:49.466Z,3.83
2018-12-03T02:55:17.932Z,3.30
2018-12-03T02:57:46.402Z,3.83
2018-12-03T03:00:16.118Z,3.20
2018-12-03T03:02:45.051Z,3.40
2018-12-03T03:05:14.515Z,3.00
2018-12-03T03:07:52.663Z,4.07
2018-12-03T03:10:21.112Z,3.70
2018-12-03T03:12:49.607Z,3.63
2018-12-03T03:15:18.061Z,3.53
2018-12-03T03:17:46.518Z,4.30
2018-12-03T03:20:15.086Z,3.83
2018-12-03T03:22:43.552Z,4.40
2018-12-03T03:25:12.295Z,4.87
2018-12-03T03:27:40.747Z,4.30
2018-12-03T03:30:13.536Z,4.80
2018-12-03T03:32:42.560Z,4.13
2018-12-03T03:35:12.240Z,4.83
2018-12-03T03:37:40.705Z,4.90
2018-12-03T03:40:11.741Z,4.13
2018-12-03T03:42:40.155Z,4.13
2018-12-03T03:45:14.167Z,4.50
2018-12-03T03:47:42.676Z,4.70
2018-12-03T03:50:11.151Z,4.47
2018-12-03T03:52:39.574Z,4.53
2018-12-03T03:55:09.087Z,4.00
2018-12-03T03:57:38.090Z,4.67
2018-12-03T04:00:12.080Z,4.70
2018-12-03T04:02:40.597Z,4.30
2018-12-03T04:05:11.335Z,3.67
2018-12-03T04:07:40.275Z,3.80
2018-12-03T04:10:11.611Z,3.50
2018-12-03T04:12:40.776Z,3.07
2018-12-03T04:15:10.785Z,2.53
2018-12-03T04:17:39.844Z,2.93
2018-12-03T04:20:11.218Z,2.40
2018-12-03T04:22:39.669Z,2.97
2018-12-03T04:25:09.592Z,2.10
2018-12-03T04:27:38.134Z,1.90
2018-12-03T04:30:22.464Z,1.90
2018-12-03T04:32:52.049Z,2.00
2018-12-03T04:35:20.574Z,1.90
2018-12-03T04:37:49.061Z,2.10
2018-12-03T04:40:17.786Z,1.73
2018-12-03T04:42:46.198Z,1.60
2018-12-03T04:45:16.030Z,1.80
2018-12-03T04:47:45.321Z,2.07
2018-12-03T04:50:19.923Z,1.90
2018-12-03T04:52:48.379Z,1.70
2018-12-03T04:55:18.163Z,1.57
2018-12-03T04:57:46.885Z,1.60
2018-12-03T05:00:16.531Z,1.47
2018-12-03T05:02:46.070Z,1.30
2018-12-03T05:05:14.556Z,1.83
2018-12-03T05:07:43.155Z,1.63
2018-12-03T05:10:13.956Z,1.60
2018-12-03T05:12:43.308Z,1.53
2018-12-03T05:15:12.643Z,1.37
2018-12-03T05:17:41.592Z,1.60
2018-12-03T05:20:15.596Z,1.60
2018-12-03T05:22:44.270Z,1.50
2018-12-03T05:25:12.549Z,1.83
2018-12-03T05:27:41.012Z,1.40
2018-12-03T05:30:13.601Z,1.50
2018-12-03T05:32:42.884Z,1.40
2018-12-03T05:35:12.962Z,1.43
2018-12-03T05:37:41.583Z,1.50
2018-12-03T05:40:12.882Z,1.30
2018-12-03T05:45:16.083Z,1.60
2018-12-03T05:47:44.596Z,1.60
2018-12-03T05:50:14.440Z,1.63
2018-12-03T05:52:43.959Z,1.30
2018-12-03T05:55:13.354Z,1.40
2018-12-03T05:57:42.341Z,1.20
2018-12-03T06:00:15.407Z,1.70
2018-12-03T06:02:44.188Z,1.60
2018-12-03T06:05:13.659Z,1.70
2018-12-03T06:07:42.155Z,1.73
2018-12-03T06:10:15.247Z,1.60
2018-12-03T06:12:43.929Z,1.50
2018-12-03T06:15:13.606Z,2.37
2018-12-03T06:17:42.104Z,1.80
2018-12-03T06:20:13.967Z,2.07
2018-12-03T06:22:42.428Z,2.30
2018-12-03T06:25:13.495Z,2.13
2018-12-03T06:27:42.329Z,1.80
2018-12-03T06:30:15.163Z,1.97
2018-12-03T06:32:43.597Z,2.23
2018-12-03T06:35:13.289Z,2.57
2018-12-03T06:37:42.825Z,2.33
2018-12-03T06:40:16.965Z,2.27
2018-12-03T06:42:46.489Z,2.33
2018-12-03T06:45:17.117Z,1.93
2018-12-03T06:47:51.928Z,2.07
2018-12-03T06:50:20.492Z,2.40
2018-12-03T06:52:49.086Z,3.10
2018-12-03T06:55:17.575Z,2.13
2018-12-03T06:57:46.130Z,2.20
2018-12-03T07:00:16.050Z,2.77
2018-12-03T07:02:44.998Z,3.30
2018-12-03T07:05:13.550Z,3.00
2018-12-03T07:07:43.287Z,2.30
2018-12-03T07:10:16.179Z,2.90
2018-12-03T07:12:45.587Z,2.20
2018-12-03T07:15:17.257Z,2.40
2018-12-03T07:17:45.901Z,2.30
2018-12-03T07:20:14.672Z,2.27
2018-12-03T07:22:43.828Z,2.47
2018-12-03T07:25:13.207Z,2.57
2018-12-03T07:27:42.235Z,2.33
2018-12-03T07:30:22.100Z,2.93
2018-12-03T07:32:51.488Z,2.93
2018-12-03T07:35:21.328Z,3.03
2018-12-03T07:37:52.436Z,2.00
2018-12-03T07:40:21.989Z,2.47
2018-12-03T07:42:50.661Z,2.93
2018-12-03T07:45:20.107Z,3.10
2018-12-03T07:47:49.153Z,2.00
2018-12-03T07:50:18.976Z,3.50
2018-12-03T07:52:47.999Z,2.23
2018-12-03T07:55:20.861Z,2.67
2018-12-03T07:57:52.052Z,2.80
2018-12-03T08:00:22.841Z,2.50
2018-12-03T08:02:51.586Z,3.30
2018-12-03T08:05:20.481Z,3.57
2018-12-03T08:07:50.505Z,2.93
2018-12-03T08:10:20.511Z,2.90
2018-12-03T08:12:50.982Z,3.10
2018-12-03T08:15:21.478Z,2.97
2018-12-03T08:18:01.996Z,2.90
2018-12-03T08:20:39.868Z,3.27
2018-12-03T08:23:12.165Z,3.77
2018-12-03T08:25:42.071Z,3.23
2018-12-03T08:28:11.400Z,2.60
2018-12-03T08:30:40.418Z,3.20
2018-12-03T08:33:09.237Z,3.53
2018-12-03T08:35:38.006Z,2.93
2018-12-03T08:38:06.819Z,3.70
2018-12-03T08:40:35.717Z,3.33
2018-12-03T08:43:04.958Z,3.90
2018-12-03T08:45:33.912Z,2.63
2018-12-03T08:48:02.854Z,2.87
2018-12-03T08:50:31.619Z,3.63
2018-12-03T08:53:00.602Z,3.17
2018-12-03T08:55:29.114Z,3.63
2018-12-03T08:57:57.559Z,3.73
2018-12-03T09:00:28.442Z,3.63
2018-12-03T09:03:00.199Z,3.03
2018-12-03T09:05:35.462Z,2.90
2018-12-03T09:08:04.911Z,3.50
2018-12-03T09:10:33.398Z,3.33
2018-12-03T09:13:13.072Z,3.37
2018-12-03T09:15:41.563Z,3.53
2018-12-03T09:18:10.870Z,3.00
2018-12-03T09:20:39.337Z,2.97
2018-12-03T09:23:08.064Z,3.20
2018-12-03T09:25:36.762Z,2.97
2018-12-03T09:28:05.964Z,3.70
2018-12-03T09:30:34.445Z,3.90
2018-12-03T09:33:03.023Z,3.20
2018-12-03T09:35:31.861Z,3.57
2018-12-03T09:38:00.561Z,3.67
2018-12-03T09:40:29.901Z,3.30
2018-12-03T09:42:58.720Z,3.83
2018-12-03T09:45:27.168Z,3.43
2018-12-03T09:47:55.760Z,3.73
2018-12-03T09:50:26.135Z,3.77
2018-12-03T09:52:55.516Z,4.53
2018-12-03T09:55:26.644Z,3.87
2018-12-03T09:58:02.005Z,3.23
2018-12-03T10:00:31.121Z,3.37
2018-12-03T10:03:01.587Z,3.20
2018-12-03T10:05:35.075Z,3.73
2018-12-03T10:08:03.639Z,4.80
2018-12-03T10:10:32.122Z,3.67
2018-12-03T10:13:05.915Z,3.50
2018-12-03T10:15:34.929Z,3.63
2018-12-03T10:18:04.819Z,3.03
2018-12-03T10:20:33.321Z,3.80
2018-12-03T10:23:01.807Z,4.27
2018-12-03T10:25:30.279Z,3.80
2018-12-03T10:28:01.947Z,6.77
2018-12-03T10:30:31.144Z,4.37
2018-12-03T10:33:00.304Z,3.30
2018-12-03T10:35:36.418Z,4.40
2018-12-03T10:38:26.027Z,3.47
2018-12-03T10:40:58.625Z,3.70
2018-12-03T10:43:27.267Z,3.67
2018-12-03T10:45:55.810Z,3.73
2018-12-03T10:48:25.299Z,4.03
2018-12-03T10:50:53.911Z,4.40
2018-12-03T10:53:25.989Z,3.23
2018-12-03T10:55:54.536Z,4.57
2018-12-03T10:58:23.111Z,3.80
2018-12-03T11:01:02.337Z,3.73
2018-12-03T11:03:36.859Z,3.03
2018-12-03T11:06:10.951Z,4.20
2018-12-03T11:08:40.155Z,4.13
2018-12-03T11:11:08.712Z,3.53
2018-12-03T11:13:37.165Z,3.40
2018-12-03T11:16:07.768Z,3.70
2018-12-03T11:18:41.050Z,3.93
2018-12-03T11:21:09.835Z,4.07
2018-12-03T11:23:38.321Z,3.50
2018-12-03T11:26:07.619Z,3.30
2018-12-03T11:28:39.931Z,3.43
2018-12-03T11:31:10.686Z,4.33
2018-12-03T11:33:39.299Z,4.13
2018-12-03T11:36:07.847Z,3.70
2018-12-03T11:39:49.867Z,3.20
2018-12-03T11:42:18.344Z,3.43
2018-12-03T11:44:47.378Z,3.40
2018-12-03T11:47:16.457Z,3.10
2018-12-03T11:49:44.963Z,3.17
2018-12-03T11:52:13.470Z,3.63
2018-12-03T11:54:42.700Z,3.33
2018-12-03T11:57:11.461Z,3.77
2018-12-03T11:59:41.605Z,2.97
2018-12-03T12:02:10.635Z,3.73
2018-12-03T12:04:40.079Z,3.77
2018-12-03T12:07:08.969Z,2.70
2018-12-03T12:09:41.525Z,3.27
2018-12-03T12:12:11.055Z,4.20
2018-12-03T12:14:39.800Z,3.53
2018-12-03T12:17:09.024Z,3.63
2018-12-03T12:19:38.178Z,3.93
2018-12-03T12:22:07.162Z,3.93
2018-12-03T12:24:36.411Z,3.60
2018-12-03T12:27:05.840Z,3.13
2018-12-03T12:29:34.529Z,3.87
2018-12-03T12:32:03.004Z,3.43
2018-12-03T12:34:31.510Z,2.87
2018-12-03T12:37:00.013Z,3.77
2018-12-03T12:39:32.249Z,3.57
2018-12-03T12:42:00.742Z,4.17
2018-12-03T12:44:29.224Z,3.63
2018-12-03T12:46:58.291Z,3.77
2018-12-03T12:49:26.784Z,2.93
2018-12-03T12:51:55.264Z,3.67
2018-12-03T12:54:23.803Z,3.33
2018-12-03T12:56:52.282Z,3.67
2018-12-03T12:59:21.363Z,3.30
2018-12-03T13:01:49.927Z,3.73
2018-12-03T13:04:18.392Z,3.57
2018-12-03T13:06:46.880Z,4.23
2018-12-03T13:09:15.351Z,3.70
2018-12-03T13:11:43.840Z,3.90
2018-12-03T13:14:13.607Z,3.13
2018-12-03T13:16:42.133Z,3.83
2018-12-03T13:19:11.091Z,3.50
2018-12-03T13:21:39.571Z,3.90
2018-12-03T13:24:08.197Z,3.17
2018-12-03T13:26:39.295Z,2.90
2018-12-03T13:29:07.752Z,3.70
2018-12-03T13:31:36.189Z,3.10
2018-12-03T13:34:05.195Z,3.00
2018-12-03T13:36:33.655Z,3.40
2018-12-03T13:39:02.208Z,3.10
2018-12-03T13:41:30.723Z,3.00
2018-12-03T13:43:59.502Z,3.40
2018-12-03T13:46:28.007Z,3.50
2018-12-03T13:48:56.514Z,4.10
2018-12-03T13:51:24.964Z,2.73
2018-12-03T13:53:53.483Z,3.23
2018-12-03T13:56:22.035Z,4.33
2018-12-03T13:58:50.592Z,3.20
2018-12-03T14:01:19.593Z,4.00
2018-12-03T14:03:48.115Z,3.73
2018-12-03T14:06:41.636Z,3.40
2018-12-03T14:09:19.584Z,4.03
2018-12-03T14:11:55.643Z,3.30
2018-12-03T14:15:05.571Z,3.43
2018-12-03T14:17:39.792Z,3.67
2018-12-03T14:20:09.280Z,4.10
2018-12-03T14:28:26.638Z,3.27
2018-12-03T14:30:55.562Z,3.63
2018-12-03T14:33:24.149Z,3.73
2018-12-03T14:35:52.700Z,4.37
2018-12-03T14:38:21.213Z,3.20
2018-12-03T14:40:49.770Z,3.40
2018-12-03T14:43:18.271Z,3.30
2018-12-03T14:45:46.809Z,3.47
2018-12-03T14:48:15.977Z,3.03
2018-12-03T14:50:44.464Z,2.83
2018-12-03T14:53:12.917Z,3.33
2018-12-03T14:55:41.398Z,3.10
2018-12-03T14:58:09.859Z,3.23
2018-12-03T15:00:38.454Z,2.90
2018-12-03T15:03:07.928Z,3.43
2018-12-03T15:05:36.386Z,3.03
2018-12-03T15:08:04.984Z,3.10
2018-12-03T15:10:33.450Z,3.60
2018-12-03T15:13:01.992Z,3.57
2018-12-03T15:15:31.142Z,3.00
2018-12-03T15:17:59.734Z,3.80
2018-12-03T15:20:28.212Z,3.50
2018-12-03T15:22:56.924Z,3.30
2018-12-03T15:25:25.355Z,3.60
2018-12-03T15:27:53.863Z,3.03
2018-12-03T15:30:22.350Z,3.77
2018-12-03T15:32:50.848Z,3.63
2018-12-03T15:35:19.421Z,3.13
2018-12-03T15:37:47.906Z,3.47
2018-12-03T15:40:16.995Z,3.60
2018-12-03T15:42:45.501Z,3.60
2018-12-03T15:45:15.796Z,3.50
2018-12-03T15:47:44.298Z,3.53
2018-12-03T15:50:13.072Z,3.57
2018-12-03T15:52:42.167Z,3.90
2018-12-03T15:55:10.656Z,3.30
2018-12-03T15:57:39.136Z,3.60
2018-12-03T16:00:10.530Z,3.33
2018-12-03T16:03:11.505Z,3.23
2018-12-03T16:05:40.110Z,4.00
2018-12-03T16:08:08.670Z,3.70
2018-12-03T16:10:37.133Z,3.83
2018-12-03T16:13:05.650Z,2.77
2018-12-03T16:15:34.110Z,2.83
2018-12-03T16:18:02.572Z,2.23
2018-12-03T16:20:31.678Z,2.47
2018-12-03T16:23:00.129Z,2.20
2018-12-03T16:25:28.806Z,1.70
2018-12-03T16:27:57.279Z,3.07
2018-12-03T16:30:26.516Z,2.67
2018-12-03T16:32:55.023Z,2.07
2018-12-03T16:35:23.509Z,2.00
2018-12-03T16:37:52.016Z,3.80
2018-12-03T16:40:21.218Z,2.47
2018-12-03T16:42:50.147Z,1.83
2018-12-03T16:45:18.671Z,2.23
2018-12-03T16:47:47.168Z,2.57
2018-12-03T16:50:15.756Z,2.33
2018-12-03T16:52:44.731Z,1.70
2018-12-03T16:55:13.381Z,1.37
2018-12-03T16:57:41.903Z,2.20
2018-12-03T17:00:13.810Z,2.77
2018-12-03T17:02:42.251Z,3.10
2018-12-03T17:05:11.041Z,4.00
2018-12-03T17:07:39.669Z,4.40
2018-12-03T17:10:14.260Z,5.33
2018-12-03T17:12:43.180Z,5.47
2018-12-03T17:15:11.732Z,4.53
2018-12-03T17:17:40.234Z,5.37
2018-12-03T17:20:16.372Z,5.17
2018-12-03T17:22:48.964Z,4.60
2018-12-03T17:25:20.401Z,4.83
2018-12-03T17:27:48.908Z,5.63
2018-12-03T17:30:17.428Z,5.77
2018-12-03T17:32:45.911Z,5.73
2018-12-03T17:35:14.471Z,5.80
2018-12-03T17:37:43.376Z,5.67
2018-12-03T17:40:12.281Z,5.23
2018-12-03T17:42:41.083Z,4.10
2018-12-03T17:45:12.909Z,4.50
2018-12-03T17:47:41.914Z,5.70
2018-12-03T17:50:10.372Z,4.80
2018-12-03T17:52:38.836Z,5.30
2018-12-03T17:55:07.999Z,4.80
2018-12-03T17:57:36.724Z,4.47
2018-12-03T18:00:08.666Z,4.13
2018-12-03T18:02:37.126Z,4.43
2018-12-03T18:05:05.867Z,4.83
2018-12-03T18:07:34.394Z,4.30
2018-12-03T18:10:02.866Z,4.53
2018-12-03T18:12:31.397Z,3.77
2018-12-03T18:15:00.166Z,4.20
2018-12-03T18:17:28.664Z,3.90
2018-12-03T18:19:57.113Z,3.70
2018-12-03T18:22:26.314Z,4.30
2018-12-03T18:24:55.380Z,3.87
2018-12-03T18:27:24.019Z,3.43
2018-12-03T18:29:53.155Z,4.07
2018-12-03T18:32:21.710Z,3.70
2018-12-03T18:34:50.865Z,3.53
2018-12-03T18:37:19.350Z,3.37
2018-12-03T18:39:47.848Z,3.30
2018-12-03T18:42:16.344Z,4.10
2018-12-03T18:44:45.086Z,3.60
2018-12-03T18:47:13.556Z,4.00
2018-12-03T18:49:45.630Z,3.93
2018-12-03T18:52:15.983Z,3.50
2018-12-03T18:54:44.501Z,3.60
2018-12-03T18:57:12.980Z,3.63
2018-12-03T18:59:42.644Z,3.93
2018-12-03T19:02:11.127Z,4.13
2018-12-03T19:04:39.616Z,4.60
2018-12-03T19:07:08.080Z,3.63
2018-12-03T19:09:36.832Z,4.37
2018-12-03T19:12:05.347Z,4.17
2018-12-03T19:14:33.995Z,4.33
2018-12-03T19:17:02.467Z,4.30
2018-12-03T19:19:31.141Z,3.97
2018-12-03T19:21:59.680Z,4.13
2018-12-03T19:24:28.206Z,4.37
2018-12-03T19:26:56.799Z,3.97
2018-12-03T19:29:25.259Z,3.67
2018-12-03T19:31:54.109Z,4.53
2018-12-03T19:34:23.036Z,4.47
2018-12-03T19:36:51.524Z,4.20
2018-12-03T19:39:20.206Z,4.73
2018-12-03T19:41:48.654Z,4.33
2018-12-03T19:44:17.116Z,3.90
2018-12-03T19:46:46.437Z,4.13
2018-12-03T19:49:17.377Z,3.60
2018-12-03T19:51:45.863Z,4.07
2018-12-03T19:54:14.904Z,4.77
2018-12-03T19:56:45.614Z,3.87
2018-12-03T19:59:14.109Z,4.60
2018-12-03T20:01:44.132Z,4.50
2018-12-03T20:04:24.401Z,4.67
2018-12-03T20:06:54.621Z,4.50
2018-12-03T20:09:24.043Z,5.00
2018-12-03T20:11:52.523Z,3.90
2018-12-03T20:14:20.961Z,4.27
2018-12-03T20:16:49.480Z,5.03
2018-12-03T20:19:18.381Z,4.63
2018-12-03T20:21:49.179Z,5.57
2018-12-03T20:24:19.327Z,5.90
2018-12-03T20:26:57.607Z,5.57
2018-12-03T20:29:39.158Z,5.53
2018-12-03T20:32:23.156Z,5.10
2018-12-03T20:35:01.501Z,5.23
2018-12-03T20:37:44.463Z,5.27
2018-12-03T20:40:28.276Z,6.00
2018-12-03T20:43:02.319Z,5.93
2018-12-03T20:45:46.872Z,5.27
2018-12-03T20:48:16.080Z,5.23
2018-12-03T20:50:55.408Z,5.93
2018-12-03T20:53:28.430Z,4.60
2018-12-03T20:55:57.971Z,6.50
2018-12-03T20:58:27.547Z,5.93
2018-12-03T21:00:56.026Z,5.23
2018-12-03T21:03:24.495Z,5.70
2018-12-03T21:05:53.000Z,5.90
2018-12-03T21:08:21.455Z,5.47
2018-12-03T21:10:49.963Z,5.63
2018-12-03T21:13:19.567Z,5.33
2018-12-03T21:15:48.181Z,5.87
2018-12-03T21:18:16.635Z,5.30
2018-12-03T21:20:49.404Z,5.60
2018-12-03T21:23:17.909Z,5.03
2018-12-03T21:25:46.396Z,5.83
2018-12-03T21:28:15.248Z,6.03
2018-12-03T21:30:43.720Z,5.63
2018-12-03T21:33:12.226Z,6.20
2018-12-03T21:35:40.756Z,6.53
2018-12-03T21:38:09.264Z,7.03
2018-12-03T21:40:37.710Z,6.27
2018-12-03T21:43:06.427Z,5.90
2018-12-03T21:45:34.938Z,6.93
2018-12-03T21:48:03.544Z,6.77
2018-12-03T21:50:31.992Z,5.07
2018-12-03T21:53:00.465Z,5.47
2018-12-03T21:55:28.910Z,6.70
2018-12-03T21:57:57.996Z,5.40
2018-12-03T22:00:27.447Z,6.20
2018-12-03T22:02:55.908Z,6.87
2018-12-03T22:05:25.656Z,6.40
2018-12-03T22:07:54.199Z,6.13
2018-12-03T22:10:22.678Z,7.13
2018-12-03T22:12:51.158Z,7.97
2018-12-03T22:15:19.662Z,6.77
2018-12-03T22:17:48.139Z,6.93
2018-12-03T22:20:16.578Z,6.87
2018-12-03T22:22:45.082Z,7.00
2018-12-03T22:25:13.525Z,7.00
2018-12-03T22:27:42.042Z,7.33
2018-12-03T22:30:11.503Z,6.37
2018-12-03T22:32:40.083Z,6.97
2018-12-03T22:35:09.481Z,5.80
2018-12-03T22:37:37.998Z,7.67
2018-12-03T22:40:06.863Z,7.50
2018-12-03T22:42:35.372Z,7.20
2018-12-03T22:45:04.065Z,6.67
2018-12-03T22:47:32.928Z,7.20
2018-12-03T22:50:01.387Z,6.83
2018-12-03T22:52:29.831Z,6.93
2018-12-03T22:54:58.373Z,7.37
2018-12-03T22:57:26.827Z,7.53
2018-12-03T22:59:55.335Z,6.83
2018-12-03T23:02:23.761Z,7.23
2018-12-03T23:04:52.230Z,7.70
2018-12-03T23:07:20.677Z,7.00
2018-12-03T23:09:49.194Z,7.17
2018-12-03T23:12:17.687Z,6.70
2018-12-03T23:14:46.278Z,7.60
2018-12-03T23:17:14.758Z,8.20
2018-12-03T23:19:43.215Z,6.83
2018-12-03T23:22:11.647Z,8.67
2018-12-03T23:24:40.098Z,8.97
2018-12-03T23:27:08.537Z,9.97
2018-12-03T23:29:37.783Z,8.60
2018-12-03T23:32:06.364Z,9.03
2018-12-03T23:34:34.766Z,9.40
2018-12-03T23:37:03.251Z,10.33
2018-12-03T23:39:31.685Z,9.70
2018-12-03T23:42:00.278Z,10.60
2018-12-03T23:44:29.423Z,11.60
2018-12-03T23:46:58.074Z,11.27
2018-12-03T23:49:27.144Z,11.63
2018-12-03T23:51:55.611Z,10.77
2018-12-03T23:54:24.055Z,11.23
2018-12-03T23:56:52.790Z,10.43
2018-12-03T23:59:22.278Z,9.47
